Time;durP1;ratioP1;P1;durP2;ratioP2;P2;SDS_P1;SDS_P2;PMS_P1;PMS_P2;Temp;Humidity;BMP_temperature;BMP_pressure;BME280_temperature;BME280_humidity;BME280_pressure;Samples;Min_cycle;Max_cycle;Signal;HPM_P1;HPM_P2
2021/03/09 00:01:19;;;;;;;71.32;38.25;;;-0.80;93.00;;;;;;5060069;28;20245;-62
2021/03/09 00:03:45;;;;;;;59.20;36.97;;;-0.30;93.10;;;;;;5076067;28;20214;-61
2021/03/09 00:06:12;;;;;;;68.65;38.35;;;-0.40;93.20;;;;;;5076715;28;20207;-61
2021/03/09 00:08:39;;;;;;;68.30;41.38;;;-0.40;93.40;;;;;;5076590;28;20286;-61
2021/03/09 00:11:05;;;;;;;66.30;38.47;;;-1.50;93.30;;;;;;5078859;28;20202;-61
2021/03/09 00:13:32;;;;;;;72.38;41.13;;;-2.00;93.30;;;;;;5076520;28;20203;-61
2021/03/09 00:15:58;;;;;;;63.53;37.63;;;-1.10;93.60;;;;;;5079571;28;20234;-61
2021/03/09 00:18:25;;;;;;;67.25;39.55;;;-1.50;93.30;;;;;;5078127;28;20497;-60
2021/03/09 00:20:51;;;;;;;71.20;41.95;;;-1.50;93.40;;;;;;5079719;28;20221;-60
2021/03/09 00:23:18;;;;;;;72.18;41.28;;;-1.50;93.60;;;;;;5078671;28;20201;-61
2021/03/09 00:25:44;;;;;;;83.28;44.58;;;-0.40;93.90;;;;;;5079196;28;20211;-61
2021/03/09 00:28:11;;;;;;;72.35;41.42;;;-1.60;93.70;;;;;;5078219;28;20289;-61
2021/03/09 00:30:37;;;;;;;77.15;46.53;;;-0.60;94.00;;;;;;5079423;28;20429;-61
2021/03/09 00:33:04;;;;;;;79.75;45.47;;;-1.20;93.90;;;;;;5061736;28;20211;-60
2021/03/09 00:35:31;;;;;;;77.55;44.83;;;-1.60;93.90;;;;;;5077947;28;20253;-61
2021/03/09 00:37:57;;;;;;;69.70;45.63;;;-1.60;94.10;;;;;;5078940;28;20258;-60
2021/03/09 00:40:24;;;;;;;77.85;45.30;;;-1.60;94.00;;;;;;5078307;28;20199;-61
2021/03/09 00:42:50;;;;;;;85.18;47.30;;;-1.60;94.10;;;;;;5078117;28;20495;-61
2021/03/09 00:45:17;;;;;;;88.07;48.60;;;-1.30;94.30;;;;;;5074602;28;20247;-62
2021/03/09 00:47:53;;;;;;;78.85;46.83;;;-1.60;94.30;;;;;;5078461;28;20278;-61
2021/03/09 00:50:20;;;;;;;80.22;47.08;;;-1.70;94.40;;;;;;5074624;28;20221;-61
2021/03/09 00:52:47;;;;;;;86.60;49.22;;;-1.80;94.70;;;;;;5075801;28;20210;-61
2021/03/09 00:55:13;;;;;;;84.82;48.80;;;-1.70;94.60;;;;;;5076389;28;20541;-61
2021/03/09 00:57:40;;;;;;;82.45;46.25;;;-1.70;94.50;;;;;;5073777;28;20218;-61
2021/03/09 01:00:07;;;;;;;77.70;47.40;;;-0.90;94.80;;;;;;5075782;28;20207;-61
2021/03/09 01:02:34;;;;;;;81.70;50.63;;;-1.60;94.60;;;;;;5074191;28;20208;-60
2021/03/09 01:05:01;;;;;;;87.63;50.90;;;-1.70;94.90;;;;;;5076817;28;20358;-60
2021/03/09 01:07:27;;;;;;;83.93;50.28;;;-1.80;95.00;;;;;;5072696;28;20222;-60
2021/03/09 01:09:54;;;;;;;91.90;51.55;;;-1.90;95.20;;;;;;5069884;28;20405;-61
2021/03/09 01:12:20;;;;;;;85.93;52.60;;;-1.40;95.50;;;;;;5073879;28;20207;-60
2021/03/09 01:14:47;;;;;;;94.28;49.28;;;-1.80;95.10;;;;;;5077088;28;20202;-61
2021/03/09 01:17:13;;;;;;;84.75;48.22;;;-1.70;94.90;;;;;;5078023;28;20239;-61
2021/03/09 01:19:40;;;;;;;81.25;46.22;;;-1.60;94.90;;;;;;5077693;28;20264;-61
2021/03/09 01:22:07;;;;;;;80.13;48.97;;;-1.70;94.90;;;;;;5078150;28;20214;-61
2021/03/09 01:24:33;;;;;;;98.15;50.80;;;-0.60;95.30;;;;;;5077603;28;20215;-61
2021/03/09 01:27:00;;;;;;;86.97;51.72;;;-1.70;94.90;;;;;;5076897;28;20642;-61
2021/03/09 01:29:27;;;;;;;86.13;50.47;;;-1.70;95.00;;;;;;5077518;28;20342;-60
2021/03/09 01:31:53;;;;;;;92.88;50.10;;;-0.50;95.30;;;;;;5077251;28;20363;-60
2021/03/09 01:34:20;;;;;;;88.57;49.65;;;-1.80;95.00;;;;;;5077898;28;20294;-60
2021/03/09 01:36:46;;;;;;;93.82;50.97;;;-1.80;95.20;;;;;;5077138;28;20242;-62
2021/03/09 01:39:14;;;;;;;100.53;52.28;;;-0.80;96.00;;;;;;5076931;28;20245;-61
2021/03/09 01:41:40;;;;;;;90.47;53.88;;;-1.80;95.70;;;;;;5077197;28;20203;-60
2021/03/09 01:44:07;;;;;;;84.85;51.63;;;-1.30;95.70;;;;;;5077040;28;20234;-60
2021/03/09 01:46:34;;;;;;;95.13;50.78;;;-1.90;95.50;;;;;;5074103;28;20211;-61
2021/03/09 01:49:01;;;;;;;91.68;51.67;;;-1.90;95.50;;;;;;5055986;28;20242;-60
2021/03/09 01:51:28;;;;;;;84.32;50.78;;;-1.70;95.80;;;;;;5075154;28;20561;-61
2021/03/09 01:53:54;;;;;;;92.45;54.67;;;-1.90;95.40;;;;;;5074082;28;20215;-61
2021/03/09 01:56:22;;;;;;;82.15;50.35;;;-1.90;95.60;;;;;;5074377;28;20633;-63
2021/03/09 01:58:49;;;;;;;83.57;50.38;;;-1.20;95.80;;;;;;5073599;28;20391;-62
2021/03/09 02:01:17;;;;;;;83.70;49.10;;;-1.90;95.50;;;;;;5073214;28;20202;-61
2021/03/09 02:03:44;;;;;;;83.53;50.97;;;-1.40;95.80;;;;;;5074555;28;20210;-61
2021/03/09 02:06:15;;;;;;;83.25;49.13;;;-0.80;96.00;;;;;;5071008;28;20306;-60
2021/03/09 02:08:44;;;;;;;92.18;51.95;;;-1.80;95.70;;;;;;5074090;28;20522;-60
2021/03/09 02:11:41;;;;;;;90.47;50.63;;;-2.00;95.90;;;;;;5058884;28;20211;-61
2021/03/09 02:14:28;;;;;;;90.82;53.75;;;-2.20;96.10;;;;;;5039227;28;20270;-60
2021/03/09 02:17:04;;;;;;;105.30;58.58;;;-2.10;96.10;;;;;;5060914;28;20230;-61
2021/03/09 02:20:14;;;;;;;97.25;62.03;;;-1.10;96.80;;;;;;5068148;28;20206;-61
2021/03/09 02:23:21;;;;;;;103.13;57.70;;;-2.30;96.50;;;;;;5039660;28;20207;-60
2021/03/09 02:26:31;;;;;;;96.20;56.88;;;-2.20;96.40;;;;;;5071895;28;20222;-61
2021/03/09 02:29:44;;;;;;;104.82;57.60;;;-2.20;96.40;;;;;;5025556;28;20436;-62
2021/03/09 02:32:16;;;;;;;98.78;57.10;;;-2.10;96.30;;;;;;5027272;28;20231;-61
2021/03/09 02:35:04;;;;;;;103.18;59.55;;;-1.80;96.10;;;;;;5069959;28;20221;-61
2021/03/09 02:37:35;;;;;;;109.55;57.70;;;-2.10;96.20;;;;;;5071043;28;20222;-62
2021/03/09 02:40:06;;;;;;;100.55;55.78;;;-2.10;96.20;;;;;;5065465;28;20202;-62
2021/03/09 02:42:38;;;;;;;111.50;57.33;;;-2.10;96.20;;;;;;5068136;28;20428;-61
2021/03/09 02:45:06;;;;;;;91.47;54.60;;;-2.10;96.20;;;;;;5061886;28;20214;-62
2021/03/09 02:47:33;;;;;;;93.13;54.65;;;-2.10;96.10;;;;;;5071684;28;20215;-61
2021/03/09 02:50:01;;;;;;;96.10;55.40;;;-1.00;96.40;;;;;;5068002;28;20237;-61
2021/03/09 02:52:30;;;;;;;99.68;55.85;;;-2.10;96.20;;;;;;5070767;28;20278;-61
2021/03/09 02:54:58;;;;;;;93.78;56.17;;;-2.20;96.20;;;;;;5070596;28;20229;-61
2021/03/09 02:57:27;;;;;;;105.20;55.10;;;-2.20;96.20;;;;;;5075545;28;20277;-61
2021/03/09 02:59:55;;;;;;;87.90;52.78;;;-2.30;96.40;;;;;;5076120;28;20203;-61
2021/03/09 03:02:22;;;;;;;104.03;53.30;;;-1.10;96.60;;;;;;5077001;28;20210;-61
2021/03/09 03:04:50;;;;;;;105.80;54.20;;;-2.20;96.10;;;;;;5076136;28;20195;-62
2021/03/09 03:07:18;;;;;;;93.75;53.60;;;-2.40;96.30;;;;;;5066331;28;20497;-61
2021/03/09 03:09:47;;;;;;;87.50;49.15;;;-2.30;96.50;;;;;;5069105;28;20262;-61
2021/03/09 03:12:14;;;;;;;88.60;51.28;;;-2.40;96.30;;;;;;5059172;28;20230;-62
2021/03/09 03:14:43;;;;;;;86.18;53.80;;;-2.30;96.30;;;;;;5075035;28;20206;-60
2021/03/09 03:17:10;;;;;;;98.85;53.28;;;-2.40;96.20;;;;;;5076068;28;20268;-61
2021/03/09 03:19:50;;;;;;;83.57;50.80;;;-2.30;96.40;;;;;;5075824;28;20241;-61
2021/03/09 03:22:18;;;;;;;85.03;49.72;;;-1.50;96.50;;;;;;5069837;28;20212;-61
2021/03/09 03:24:48;;;;;;;93.45;54.42;;;-1.80;96.60;;;;;;5073535;28;20207;-60
2021/03/09 03:27:17;;;;;;;94.75;55.45;;;-2.50;96.60;;;;;;5066758;28;20275;-61
2021/03/09 03:29:44;;;;;;;87.05;52.35;;;-2.50;96.50;;;;;;5062002;28;20242;-61
2021/03/09 03:32:14;;;;;;;93.88;51.28;;;-2.40;96.50;;;;;;5073824;28;20229;-60
2021/03/09 03:34:44;;;;;;;89.85;50.33;;;-2.50;96.60;;;;;;5079446;28;20227;-60
2021/03/09 03:37:13;;;;;;;95.85;55.47;;;-2.00;96.70;;;;;;5079566;28;20231;-59
2021/03/09 03:39:40;;;;;;;94.70;53.97;;;-2.10;96.60;;;;;;5079459;28;20207;-61
2021/03/09 03:42:07;;;;;;;86.88;51.67;;;-2.50;96.40;;;;;;5080138;28;20219;-61
2021/03/09 03:44:34;;;;;;;95.65;51.47;;;-2.60;96.50;;;;;;5082821;28;20588;-61
2021/03/09 03:47:01;;;;;;;90.82;55.15;;;-2.60;96.60;;;;;;5078210;28;20397;-61
2021/03/09 03:49:29;;;;;;;86.25;52.22;;;-2.60;96.70;;;;;;5061921;28;20206;-60
2021/03/09 03:52:24;;;;;;;89.82;52.08;;;-2.50;96.60;;;;;;5079036;28;20204;-60
2021/03/09 03:55:13;;;;;;;99.10;56.65;;;-2.40;96.50;;;;;;5056746;28;20204;-60
2021/03/09 03:57:50;;;;;;;88.72;52.17;;;-2.50;96.50;;;;;;5022671;28;20227;-60
2021/03/09 04:00:19;;;;;;;93.50;54.88;;;-2.50;96.20;;;;;;5074044;28;20207;-59
2021/03/09 04:02:48;;;;;;;91.22;52.17;;;-1.30;97.00;;;;;;5079297;28;20512;-58
2021/03/09 04:05:17;;;;;;;95.05;57.42;;;-2.70;96.60;;;;;;5072827;28;20242;-57
2021/03/09 04:07:45;;;;;;;101.90;57.95;;;-2.80;97.10;;;;;;5049838;28;20204;-59
2021/03/09 04:10:12;;;;;;;109.15;57.53;;;-2.10;97.20;;;;;;5079245;28;20718;-59
2021/03/09 04:12:39;;;;;;;120.75;60.60;;;-1.90;97.20;;;;;;5073270;28;20199;-58
2021/03/09 04:15:07;;;;;;;105.03;57.03;;;-2.10;97.30;;;;;;5068698;28;20207;-58
2021/03/09 04:17:35;;;;;;;84.90;48.90;;;-2.80;97.10;;;;;;5067906;28;20294;-57
2021/03/09 04:20:05;;;;;;;105.00;57.38;;;-2.90;97.10;;;;;;5068702;28;20204;-59
2021/03/09 04:22:33;;;;;;;104.57;58.53;;;-2.90;97.30;;;;;;5056630;28;20505;-57
2021/03/09 04:25:00;;;;;;;105.35;57.45;;;-2.50;97.20;;;;;;5079771;28;20230;-57
2021/03/09 04:27:27;;;;;;;95.80;51.95;;;-2.90;97.30;;;;;;5078571;28;20211;-59
2021/03/09 04:29:56;;;;;;;98.70;55.20;;;-2.90;97.10;;;;;;5079019;28;20401;-56
2021/03/09 04:32:25;;;;;;;97.63;52.03;;;-2.80;97.20;;;;;;5079100;28;20570;-58
2021/03/09 04:34:52;;;;;;;98.38;56.65;;;-2.80;97.20;;;;;;5077532;28;20477;-56
2021/03/09 04:37:36;;;;;;;97.40;56.08;;;-2.80;97.00;;;;;;5079394;28;20235;-56
2021/03/09 04:40:05;;;;;;;84.78;49.45;;;-3.50;96.90;;;;;;5065283;28;20213;-55
2021/03/09 04:42:32;;;;;;;98.28;53.88;;;-2.90;97.20;;;;;;5078828;28;20244;-57
2021/03/09 04:44:58;;;;;;;82.25;52.00;;;-2.70;97.20;;;;;;5078480;28;20210;-57
2021/03/09 04:47:27;;;;;;;80.15;49.05;;;-2.90;97.10;;;;;;5078465;28;20301;-56
2021/03/09 04:49:55;;;;;;;79.97;49.45;;;-2.90;97.10;;;;;;5076832;28;20203;-56
2021/03/09 04:52:24;;;;;;;90.15;55.05;;;-2.90;97.10;;;;;;5077785;28;20406;-56
2021/03/09 04:54:51;;;;;;;89.18;54.22;;;-3.40;97.10;;;;;;5078059;28;20213;-56
2021/03/09 04:57:18;;;;;;;77.43;52.35;;;-2.90;97.20;;;;;;5075672;28;20488;-54
2021/03/09 04:59:44;;;;;;;94.75;56.10;;;-1.80;97.50;;;;;;5064596;28;20489;-56
2021/03/09 05:02:11;;;;;;;95.78;52.72;;;-2.90;97.30;;;;;;5070277;28;20199;-55
2021/03/09 05:04:38;;;;;;;99.63;53.08;;;-2.70;97.50;;;;;;5078224;28;20453;-57
2021/03/09 05:07:05;;;;;;;101.97;53.35;;;-2.90;97.40;;;;;;5076189;28;20226;-57
2021/03/09 05:09:31;;;;;;;92.18;56.17;;;-3.00;97.50;;;;;;5069880;28;20214;-53
2021/03/09 05:11:58;;;;;;;108.03;56.58;;;-2.90;97.70;;;;;;5072978;28;20204;-55
2021/03/09 05:14:24;;;;;;;95.25;57.10;;;-2.80;97.40;;;;;;5075940;28;20695;-53
2021/03/09 05:16:51;;;;;;;97.43;55.33;;;-2.80;97.20;;;;;;5076349;28;20237;-55
2021/03/09 05:19:18;;;;;;;94.13;51.17;;;-2.80;97.40;;;;;;5077373;28;20244;-52
2021/03/09 05:21:44;;;;;;;90.32;52.25;;;-2.80;97.40;;;;;;5074763;28;20374;-57
2021/03/09 05:24:11;;;;;;;108.80;53.50;;;-2.80;97.30;;;;;;5070232;28;20424;-56
2021/03/09 05:26:37;;;;;;;104.75;59.47;;;-2.70;97.20;;;;;;5077214;28;20217;-53
2021/03/09 05:29:04;;;;;;;103.65;60.65;;;-2.70;97.20;;;;;;5077237;28;20221;-54
2021/03/09 05:31:30;;;;;;;110.68;70.70;;;-2.70;97.30;;;;;;5062512;28;20203;-56
2021/03/09 05:33:57;;;;;;;118.93;68.72;;;-1.90;98.00;;;;;;5073825;28;20529;-55
2021/03/09 05:36:24;;;;;;;97.80;58.00;;;-1.90;97.70;;;;;;5076301;28;20227;-55
2021/03/09 05:38:50;;;;;;;108.45;55.05;;;-1.70;97.70;;;;;;5076468;28;20451;-54
2021/03/09 05:41:17;;;;;;;99.80;52.80;;;-2.70;97.60;;;;;;5063728;28;20207;-56
2021/03/09 05:43:44;;;;;;;83.25;44.70;;;-2.60;97.70;;;;;;5077704;28;20231;-53
2021/03/09 05:46:11;;;;;;;84.47;44.10;;;-2.60;97.70;;;;;;5067126;28;20229;-54
2021/03/09 05:48:38;;;;;;;95.45;53.95;;;-2.60;97.40;;;;;;5074643;28;20685;-53
2021/03/09 05:51:04;;;;;;;82.70;42.58;;;-1.30;97.70;;;;;;5075887;28;20207;-52
2021/03/09 05:53:31;;;;;;;76.88;43.67;;;-1.90;97.30;;;;;;5072441;28;20203;-56
2021/03/09 05:55:58;;;;;;;75.38;42.67;;;-2.20;96.80;;;;;;5076988;28;20237;-57
2021/03/09 05:58:26;;;;;;;77.47;43.90;;;-2.00;96.70;;;;;;5066141;28;20206;-57
2021/03/09 06:00:54;;;;;;;71.90;40.60;;;-1.80;96.40;;;;;;5077035;28;20207;-55
2021/03/09 06:03:24;;;;;;;62.85;36.70;;;-1.60;96.20;;;;;;5074867;28;20517;-55
2021/03/09 06:05:51;;;;;;;80.30;46.22;;;-1.90;95.90;;;;;;5070091;28;20207;-56
2021/03/09 06:08:17;;;;;;;67.38;38.03;;;-1.50;96.20;;;;;;5073470;28;20213;-52
2021/03/09 06:10:45;;;;;;;73.25;38.38;;;-1.40;95.70;;;;;;5067955;28;20207;-56
2021/03/09 06:13:35;;;;;;;70.50;34.05;;;-1.20;95.40;;;;;;5067575;28;20219;-55
2021/03/09 06:16:02;;;;;;;54.30;33.80;;;-1.20;95.30;;;;;;5073605;28;20234;-55
2021/03/09 06:18:28;;;;;;;55.85;33.33;;;-1.10;94.80;;;;;;5065858;28;20222;-55
2021/03/09 06:21:12;;;;;;;61.78;31.00;;;-1.00;94.90;;;;;;5070733;28;20496;-53
2021/03/09 06:23:41;;;;;;;66.57;31.20;;;-0.70;94.70;;;;;;5075774;28;20446;-53
2021/03/09 06:26:34;;;;;;;60.92;32.10;;;-0.60;94.20;;;;;;5074508;28;20214;-53
2021/03/09 06:29:14;;;;;;;64.72;31.98;;;-0.20;94.50;;;;;;5076491;28;20214;-56
2021/03/09 06:32:00;;;;;;;49.67;28.05;;;0.60;92.80;;;;;;5069053;28;20400;-57
2021/03/09 06:34:28;;;;;;;53.35;24.20;;;1.90;91.20;;;;;;5074300;28;20660;-53
2021/03/09 06:37:17;;;;;;;47.28;25.85;;;2.00;84.70;;;;;;5075444;28;20262;-57
2021/03/09 06:39:46;;;;;;;44.30;25.17;;;3.80;82.30;;;;;;5073694;28;20211;-54
2021/03/09 06:42:21;;;;;;;51.10;27.48;;;4.30;78.40;;;;;;5066761;28;20210;-58
2021/03/09 06:45:09;;;;;;;48.15;25.90;;;5.60;74.30;;;;;;5070974;28;20234;-58
2021/03/09 06:47:41;;;;;;;48.42;28.15;;;6.30;69.40;;;;;;5075589;28;20202;-58
2021/03/09 06:50:12;;;;;;;62.38;32.30;;;6.50;68.20;;;;;;5068735;28;20249;-58
2021/03/09 06:52:44;;;;;;;56.95;31.15;;;7.70;65.70;;;;;;5067810;28;20214;-57
2021/03/09 06:55:12;;;;;;;61.38;34.75;;;8.00;62.40;;;;;;5072585;28;20204;-57
2021/03/09 06:57:40;;;;;;;54.10;31.27;;;7.70;61.20;;;;;;5071675;28;20237;-58
2021/03/09 07:00:10;;;;;;;55.33;30.13;;;7.50;61.00;;;;;;5074375;28;20210;-59
2021/03/09 07:02:37;;;;;;;40.00;24.63;;;7.40;60.60;;;;;;5053433;28;20207;-57
2021/03/09 07:05:13;;;;;;;46.80;29.52;;;7.50;61.50;;;;;;5075600;28;20274;-59
2021/03/09 07:07:41;;;;;;;54.22;29.83;;;7.90;59.50;;;;;;5079738;28;20252;-59
2021/03/09 07:10:15;;;;;;;49.45;30.40;;;8.80;56.90;;;;;;5079004;28;20215;-59
2021/03/09 07:12:47;;;;;;;49.78;27.45;;;9.70;54.70;;;;;;5078366;28;20212;-60
2021/03/09 07:15:19;;;;;;;69.95;32.30;;;9.80;52.40;;;;;;5079112;28;20216;-60
2021/03/09 07:17:50;;;;;;;59.53;29.92;;;9.20;52.60;;;;;;5079757;28;20561;-62
2021/03/09 07:20:18;;;;;;;55.17;32.10;;;9.00;54.30;;;;;;5077669;28;20212;-61
2021/03/09 07:22:54;;;;;;;61.97;34.47;;;9.30;53.90;;;;;;5078073;28;20276;-60
2021/03/09 07:25:24;;;;;;;47.80;29.55;;;9.50;53.10;;;;;;5075312;28;20227;-59
2021/03/09 07:27:57;;;;;;;50.97;30.17;;;9.30;52.50;;;;;;5061668;28;20269;-60
2021/03/09 07:30:26;;;;;;;52.67;29.55;;;8.90;53.80;;;;;;5063460;28;20209;-61
2021/03/09 07:32:55;;;;;;;53.42;31.88;;;9.90;51.90;;;;;;5068753;28;20454;-62
2021/03/09 07:35:23;;;;;;;50.75;33.50;;;10.50;49.90;;;;;;5078007;28;20272;-62
2021/03/09 07:37:52;;;;;;;57.25;30.15;;;11.10;48.50;;;;;;5078623;28;20236;-61
2021/03/09 07:40:27;;;;;;;54.88;32.40;;;11.70;47.70;;;;;;5079167;28;20218;-61
2021/03/09 07:42:55;;;;;;;50.67;30.42;;;11.60;46.40;;;;;;5074917;28;20300;-62
2021/03/09 07:45:40;;;;;;;51.17;30.83;;;12.10;44.60;;;;;;5056533;28;20205;-60
2021/03/09 07:48:16;;;;;;;42.03;26.75;;;13.10;44.20;;;;;;5073854;28;20194;-63
2021/03/09 07:50:44;;;;;;;39.65;25.33;;;14.00;40.30;;;;;;5060188;28;20194;-61
2021/03/09 07:53:10;;;;;;;48.22;26.30;;;13.60;40.30;;;;;;5060914;28;20191;-61
2021/03/09 07:55:41;;;;;;;37.60;23.98;;;14.00;40.00;;;;;;5065285;28;20283;-61
2021/03/09 07:58:18;;;;;;;48.88;24.58;;;14.20;38.30;;;;;;5069603;28;20449;-61
2021/03/09 08:00:53;;;;;;;33.95;19.92;;;14.60;37.80;;;;;;5068956;28;20205;-62
2021/03/09 08:03:26;;;;;;;30.50;18.15;;;14.10;37.60;;;;;;5044665;28;20477;-61
2021/03/09 08:05:56;;;;;;;28.00;18.90;;;13.60;38.30;;;;;;5060369;28;20186;-63
2021/03/09 08:08:39;;;;;;;40.25;20.55;;;13.70;38.20;;;;;;5077186;28;20191;-62
2021/03/09 08:11:27;;;;;;;44.65;21.67;;;13.20;38.70;;;;;;5069698;28;20247;-61
2021/03/09 08:14:05;;;;;;;33.38;21.02;;;13.90;38.60;;;;;;5059237;28;20191;-61
2021/03/09 08:16:38;;;;;;;39.88;22.65;;;14.40;37.10;;;;;;5071323;28;20271;-61
2021/03/09 08:19:13;;;;;;;27.67;20.00;;;13.60;39.00;;;;;;5077012;28;20209;-62
2021/03/09 08:21:47;;;;;;;30.95;19.58;;;14.60;37.60;;;;;;5075162;28;20492;-61
2021/03/09 08:24:15;;;;;;;34.63;21.45;;;14.50;36.00;;;;;;5077238;28;20298;-61
2021/03/09 08:26:45;;;;;;;27.40;19.63;;;14.20;38.10;;;;;;5077361;28;20206;-60
2021/03/09 08:29:29;;;;;;;38.60;20.88;;;14.90;36.70;;;;;;5075595;28;20203;-61
2021/03/09 08:32:26;;;;;;;35.22;21.63;;;13.80;38.30;;;;;;5072824;28;20216;-61
2021/03/09 08:35:13;;;;;;;34.20;20.70;;;13.80;38.40;;;;;;5073162;28;20226;-60
2021/03/09 08:37:41;;;;;;;27.92;18.33;;;14.40;37.80;;;;;;5065125;28;20241;-61
2021/03/09 08:40:14;;;;;;;29.60;17.45;;;14.20;37.10;;;;;;5052298;28;20446;-61
2021/03/09 08:43:02;;;;;;;26.00;17.85;;;13.70;38.10;;;;;;5065765;28;20202;-64
2021/03/09 08:45:33;;;;;;;40.33;19.60;;;13.50;38.40;;;;;;5072844;28;20199;-62
2021/03/09 08:48:02;;;;;;;28.70;15.85;;;13.90;38.40;;;;;;5075306;28;20556;-61
2021/03/09 08:50:49;;;;;;;21.23;15.48;;;13.70;37.50;;;;;;5072281;28;20206;-61
2021/03/09 08:53:33;;;;;;;27.25;15.43;;;13.70;37.50;;;;;;5062614;28;20206;-62
2021/03/09 08:56:03;;;;;;;33.97;17.90;;;13.30;37.80;;;;;;5073336;28;20204;-62
2021/03/09 08:58:30;;;;;;;20.17;13.80;;;12.80;39.10;;;;;;5068340;28;20225;-61
2021/03/09 09:00:58;;;;;;;22.52;14.82;;;12.70;40.20;;;;;;5067563;28;20203;-60
2021/03/09 09:03:39;;;;;;;23.55;16.52;;;13.00;39.00;;;;;;5077351;28;20207;-61
2021/03/09 09:06:07;;;;;;;23.75;16.67;;;12.80;39.00;;;;;;5077125;28;20292;-61
2021/03/09 09:08:34;;;;;;;18.05;13.77;;;13.00;39.40;;;;;;5077576;28;20394;-62
2021/03/09 09:11:01;;;;;;;25.20;14.20;;;12.40;38.80;;;;;;5069249;28;20435;-61
2021/03/09 09:13:30;;;;;;;32.95;16.02;;;12.30;39.80;;;;;;5066136;28;20455;-62
2021/03/09 09:15:57;;;;;;;24.10;15.07;;;11.60;40.70;;;;;;5064294;28;20462;-62
2021/03/09 09:18:24;;;;;;;20.23;12.90;;;11.50;41.00;;;;;;5077000;28;20267;-62
2021/03/09 09:20:52;;;;;;;19.70;12.90;;;11.70;40.30;;;;;;5077729;28;20217;-62
2021/03/09 09:23:21;;;;;;;32.70;16.75;;;12.10;40.00;;;;;;5076285;28;20447;-66
2021/03/09 09:25:51;;;;;;;28.63;15.13;;;12.80;40.10;;;;;;5077561;28;20213;-61
2021/03/09 09:28:25;;;;;;;20.23;14.55;;;12.90;39.00;;;;;;5065217;28;20206;-64
2021/03/09 09:30:53;;;;;;;21.50;14.05;;;12.70;38.90;;;;;;5077726;28;20220;-61
2021/03/09 09:33:33;;;;;;;20.55;13.80;;;12.40;39.40;;;;;;5076072;28;20589;-63
2021/03/09 09:36:00;;;;;;;24.85;13.60;;;11.20;41.20;;;;;;5071116;28;20228;-62
2021/03/09 09:38:26;;;;;;;22.60;13.32;;;9.60;44.40;;;;;;5076462;28;20207;-62
2021/03/09 09:40:57;;;;;;;26.08;14.20;;;9.00;46.20;;;;;;5076351;28;20214;-61
2021/03/09 09:43:26;;;;;;;17.42;11.45;;;8.80;46.80;;;;;;5074503;28;20546;-62
2021/03/09 09:46:03;;;;;;;16.17;11.68;;;9.00;47.00;;;;;;5075822;28;20447;-63
2021/03/09 09:48:32;;;;;;;19.95;10.85;;;8.90;46.60;;;;;;5074458;28;20370;-62
2021/03/09 09:51:02;;;;;;;17.70;12.18;;;8.80;46.40;;;;;;5058958;28;20226;-62
2021/03/09 09:53:31;;;;;;;17.52;11.57;;;8.40;47.40;;;;;;5073293;28;20425;-63
2021/03/09 09:55:58;;;;;;;16.02;10.43;;;8.40;47.40;;;;;;5076223;28;20234;-62
2021/03/09 09:58:51;;;;;;;13.52;10.02;;;8.10;47.20;;;;;;5074640;28;21113;-63
2021/03/09 10:01:21;;;;;;;15.30;9.75;;;7.90;49.20;;;;;;5075836;28;20207;-63
2021/03/09 10:03:51;;;;;;;14.82;9.23;;;7.50;48.70;;;;;;5074736;28;20203;-61
2021/03/09 10:06:19;;;;;;;16.58;9.07;;;7.30;50.20;;;;;;5076047;28;20233;-62
2021/03/09 10:08:45;;;;;;;12.98;8.40;;;7.20;49.30;;;;;;5074232;28;20209;-63
2021/03/09 10:11:12;;;;;;;18.23;10.90;;;7.30;50.00;;;;;;5075563;28;20214;-63
2021/03/09 10:13:39;;;;;;;10.50;8.35;;;7.40;50.40;;;;;;5073811;28;20196;-63
2021/03/09 10:16:06;;;;;;;17.33;8.70;;;7.10;50.50;;;;;;5075672;28;20575;-63
2021/03/09 10:18:35;;;;;;;13.38;8.55;;;6.90;50.60;;;;;;5074434;28;20214;-63
2021/03/09 10:21:10;;;;;;;16.95;9.25;;;6.80;51.30;;;;;;5071960;28;20206;-63
2021/03/09 10:23:58;;;;;;;17.77;9.68;;;6.70;51.20;;;;;;5074540;28;20244;-63
2021/03/09 10:26:28;;;;;;;13.70;8.70;;;6.80;51.90;;;;;;5075828;28;20199;-62
2021/03/09 10:29:39;;;;;;;11.77;6.05;;;7.10;50.80;;;;;;5073030;28;20498;-63
2021/03/09 10:32:13;;;;;;;9.27;5.63;;;7.20;48.90;;;;;;5070161;28;20460;-62
2021/03/09 10:34:42;;;;;;;6.10;4.32;;;7.20;47.80;;;;;;5070802;28;20236;-63
2021/03/09 10:37:18;;;;;;;7.10;5.90;;;7.10;46.60;;;;;;5072998;28;20291;-62
2021/03/09 10:39:56;;;;;;;11.80;5.15;;;7.00;47.40;;;;;;5050037;28;20199;-62
2021/03/09 10:42:30;;;;;;;6.70;3.40;;;6.80;48.00;;;;;;5071130;28;20253;-62
2021/03/09 10:45:00;;;;;;;4.75;3.60;;;6.70;45.40;;;;;;5064118;28;20258;-62
2021/03/09 10:47:31;;;;;;;6.07;4.28;;;6.80;45.80;;;;;;5067207;28;20207;-62
2021/03/09 10:49:58;;;;;;;5.32;4.25;;;6.90;45.70;;;;;;5058503;28;20270;-62
2021/03/09 10:52:27;;;;;;;7.65;4.43;;;7.00;45.10;;;;;;5065228;28;20203;-64
2021/03/09 10:55:00;;;;;;;5.40;4.22;;;7.40;45.20;;;;;;5069403;28;20256;-63
2021/03/09 10:57:28;;;;;;;7.47;3.67;;;7.40;45.20;;;;;;5068422;28;20402;-61
2021/03/09 10:59:55;;;;;;;4.03;3.30;;;7.80;44.70;;;;;;5063371;28;20497;-62
2021/03/09 11:02:22;;;;;;;4.10;3.67;;;8.20;43.40;;;;;;5075996;28;20285;-63
2021/03/09 11:04:49;;;;;;;4.60;3.30;;;8.10;42.30;;;;;;5063672;28;20215;-62
2021/03/09 11:07:16;;;;;;;6.05;3.10;;;8.10;44.30;;;;;;5070684;28;20512;-63
2021/03/09 11:09:43;;;;;;;4.82;3.85;;;7.90;43.60;;;;;;5074887;28;20203;-63
2021/03/09 11:12:09;;;;;;;7.07;4.15;;;7.00;43.30;;;;;;5070166;28;20236;-63
2021/03/09 11:14:39;;;;;;;5.25;3.50;;;7.40;44.80;;;;;;5065593;28;20225;-64
2021/03/09 11:17:06;;;;;;;8.60;4.22;;;7.40;44.80;;;;;;5072644;28;20242;-62
2021/03/09 11:19:35;;;;;;;10.60;4.85;;;7.10;44.40;;;;;;5052949;28;20435;-63
2021/03/09 11:22:02;;;;;;;6.90;4.78;;;6.90;46.40;;;;;;5073795;28;20203;-63
2021/03/09 11:24:29;;;;;;;6.53;4.15;;;6.90;45.70;;;;;;5071680;28;20397;-63
2021/03/09 11:27:00;;;;;;;7.93;4.30;;;6.50;46.40;;;;;;5074557;28;20211;-64
2021/03/09 11:29:28;;;;;;;8.18;5.00;;;6.30;46.50;;;;;;5070577;28;20208;-63
2021/03/09 11:31:56;;;;;;;14.38;5.80;;;6.30;47.50;;;;;;5071950;28;20505;-63
2021/03/09 11:34:24;;;;;;;6.03;4.82;;;6.30;49.40;;;;;;5073639;28;20244;-64
2021/03/09 11:36:52;;;;;;;9.10;4.45;;;6.30;48.30;;;;;;5071952;28;20226;-64
2021/03/09 11:39:19;;;;;;;4.80;3.75;;;6.10;47.60;;;;;;5071905;28;20234;-64
2021/03/09 11:41:48;;;;;;;6.10;3.90;;;6.00;46.40;;;;;;5068093;28;20545;-63
2021/03/09 11:44:16;;;;;;;8.45;4.50;;;6.10;47.30;;;;;;5072572;28;20250;-63
2021/03/09 11:46:48;;;;;;;10.63;5.00;;;6.10;48.70;;;;;;5059556;28;20230;-63
2021/03/09 11:49:16;;;;;;;5.80;4.47;;;5.90;48.50;;;;;;5060227;28;20250;-64
2021/03/09 11:51:43;;;;;;;9.40;4.50;;;6.00;48.70;;;;;;5069001;28;20203;-64
2021/03/09 11:54:12;;;;;;;10.05;4.95;;;6.00;48.80;;;;;;5069310;28;20223;-64
2021/03/09 11:56:39;;;;;;;6.22;4.30;;;6.00;47.90;;;;;;5075664;28;20625;-64
2021/03/09 11:59:06;;;;;;;4.32;3.22;;;6.10;48.50;;;;;;5068833;28;20232;-64
2021/03/09 12:01:33;;;;;;;6.60;3.75;;;6.20;46.90;;;;;;5067703;28;20290;-64
2021/03/09 12:04:00;;;;;;;6.45;4.05;;;5.80;46.90;;;;;;5064037;28;20195;-64
2021/03/09 12:06:27;;;;;;;4.18;3.72;;;5.80;47.40;;;;;;5075403;28;20210;-64
2021/03/09 12:08:53;;;;;;;5.20;4.60;;;5.90;48.10;;;;;;5068822;28;20234;-64
2021/03/09 12:11:20;;;;;;;9.63;3.75;;;5.80;47.20;;;;;;5074696;28;20270;-63
2021/03/09 12:13:47;;;;;;;5.32;3.17;;;6.10;46.30;;;;;;5062127;28;20218;-64
2021/03/09 12:16:13;;;;;;;4.82;3.75;;;6.30;46.20;;;;;;5043203;28;20405;-64
2021/03/09 12:18:40;;;;;;;15.65;7.45;;;6.60;45.40;;;;;;5062614;28;20207;-65
2021/03/09 12:21:07;;;;;;;7.30;4.10;;;7.10;43.60;;;;;;5065172;28;20216;-64
2021/03/09 12:23:33;;;;;;;2.83;2.63;;;7.40;43.60;;;;;;5079118;28;20213;-65
2021/03/09 12:26:07;;;;;;;5.97;3.80;;;7.40;43.20;;;;;;5071849;28;20212;-65
2021/03/09 12:28:33;;;;;;;5.55;3.58;;;7.40;42.80;;;;;;5075619;28;20381;-65
2021/03/09 12:31:02;;;;;;;4.07;3.65;;;7.40;43.20;;;;;;5069963;28;20264;-65
2021/03/09 12:33:29;;;;;;;6.32;3.70;;;7.40;43.60;;;;;;5078663;28;20219;-66
2021/03/09 12:35:57;;;;;;;5.10;4.60;;;7.40;44.30;;;;;;5064088;28;20218;-65
2021/03/09 12:38:23;;;;;;;5.82;3.80;;;7.40;43.70;;;;;;5061043;28;20613;-66
2021/03/09 12:40:50;;;;;;;13.52;4.75;;;7.20;44.30;;;;;;5058591;28;20547;-65
2021/03/09 12:43:17;;;;;;;7.20;3.75;;;7.20;44.30;;;;;;5063563;28;20235;-65
2021/03/09 12:45:44;;;;;;;6.68;4.00;;;7.40;43.10;;;;;;5068075;28;20203;-65
2021/03/09 12:48:10;;;;;;;7.13;3.80;;;7.60;43.40;;;;;;5061635;28;20532;-67
2021/03/09 12:50:41;;;;;;;5.82;3.75;;;7.60;42.50;;;;;;5078295;28;20277;-65